首页
METAR-TAF:

METAR-TAF

机场 :

华盛顿, 弗吉尼亚州, 美国

华盛顿杜勒斯国际机场

纬度: 38-56-05N, 经度: 077-26-51W, 海拔: 95米

当前天气观测

该预报发布于14分钟前的23:52 UTC
风速11节,风向北转西北
温度 -6°C
湿度 53%
气压 1027 hPa
能見度: 16.1公里
少量云层高于10000英尺

METAR: KIAD 172352Z 33011KT 10SM FEW100 M06/M14 A3032 RMK AO2 SLP271 T10561139 11044 21061 56005

时间: 19:06 (00:06 UTC)

预报

该预报发布于23分钟前的23:43 UTC
预报有效从18日的 00点(UTC)到 19日的 06点(UTC)
风速10节,风向北转西北,有时为17节阵风
能見度: 10公里
少量云层高于25000英尺
从 18日的 0400点(UTC)
风速8节,风向西转西北
能見度: 10公里
少量云层高于25000英尺
从 18日的 1500点(UTC)
风速12节,风向西转西北,有时为18节阵风
能見度: 10公里
少量云层高于15000英尺
从 18日的 2300点(UTC)
风速7节,风向西转西北
能見度: 10公里
天空无云
从 19日的 0400点(UTC)
风速3节,风向多变
能見度: 10公里
天空无云

TAF: KIAD 172343Z 1800/1906 33010G17KT P6SM FEW250 FM180400 30008KT P6SM FEW250 FM181500 29012G18KT P6SM FEW150 FM182300 30007KT P6SM SKC FM190400 VRB03KT P6SM SKC

超过4000个机场的气象观测和天气预报(METAR&TAF报告)。

可查询的气象台以黄色和红色小点在地图上表示。

将鼠标移到小点上方,可查看气象台名称。

然后点击查看天气观测和预报。

如需切换地图:点击带黑十字的绿色按钮放大地图;点击带横线的绿色按钮缩小地图;或者点击绿色箭头查看邻近地区的地图。


METAR-TAF: